createdAt,value
2022-08-04T00:02:12.733Z,11.80
2022-08-04T00:06:04.242Z,10.80
2022-08-04T00:09:55.697Z,10.50
2022-08-04T00:13:58.152Z,11.20
2022-08-04T00:17:52.186Z,11.30
2022-08-04T00:21:39.816Z,10.90
2022-08-04T00:25:28.720Z,11.40
2022-08-04T00:29:04.796Z,11.30
2022-08-04T00:32:53.587Z,12.80
2022-08-04T00:36:42.409Z,12.10
2022-08-04T00:40:31.211Z,10.90
2022-08-04T00:44:24.274Z,12.00
2022-08-04T00:48:31.056Z,11.40
2022-08-04T00:52:30.975Z,11.40
2022-08-04T00:56:34.459Z,11.90
2022-08-04T01:00:31.813Z,11.20
2022-08-04T01:04:41.756Z,11.50
2022-08-04T01:08:38.045Z,12.50
2022-08-04T01:12:35.577Z,11.70
2022-08-04T01:16:24.370Z,11.80
2022-08-04T01:20:08.444Z,11.80
2022-08-04T01:23:59.973Z,11.40
2022-08-04T01:28:06.757Z,12.20
2022-08-04T01:32:02.489Z,12.90
2022-08-04T01:35:57.084Z,11.50
2022-08-04T01:40:01.300Z,12.50
2022-08-04T01:43:51.270Z,11.80
2022-08-04T01:47:40.439Z,12.20
2022-08-04T01:51:29.266Z,12.50
2022-08-04T01:55:08.539Z,12.40
2022-08-04T01:58:57.338Z,12.00
2022-08-04T02:02:46.575Z,13.30
2022-08-04T02:06:35.232Z,13.10
2022-08-04T02:10:22.252Z,12.70
2022-08-04T02:14:19.889Z,12.60
2022-08-04T02:18:06.894Z,13.10
2022-08-04T02:21:56.618Z,12.90
2022-08-04T02:25:48.289Z,12.60
2022-08-04T02:29:58.131Z,12.70
2022-08-04T02:33:47.043Z,13.20
2022-08-04T02:37:35.924Z,12.80
2022-08-04T02:41:18.594Z,13.50
2022-08-04T02:45:07.497Z,13.70
2022-08-04T02:48:56.437Z,13.30
2022-08-04T02:52:30.747Z,13.60
2022-08-04T02:56:22.268Z,12.80
2022-08-04T02:59:44.910Z,13.40
2022-08-04T03:03:46.049Z,13.80
2022-08-04T03:08:01.884Z,14.20
2022-08-04T03:11:53.502Z,13.20
2022-08-04T03:15:57.135Z,13.90
2022-08-04T03:19:47.346Z,15.40
2022-08-04T03:23:53.174Z,14.20
2022-08-04T03:27:39.025Z,15.10
2022-08-04T03:31:27.667Z,13.20
2022-08-04T03:35:25.321Z,14.30
2022-08-04T03:39:17.261Z,14.40
2022-08-04T03:43:59.081Z,14.80
2022-08-04T03:47:01.370Z,14.70
2022-08-04T03:50:41.181Z,14.60
2022-08-04T03:54:30.658Z,13.70
2022-08-04T03:58:33.713Z,14.70
2022-08-04T04:02:12.973Z,14.40
2022-08-04T04:06:20.205Z,14.50
2022-08-04T04:10:28.863Z,14.00
2022-08-04T04:14:18.959Z,14.10
2022-08-04T04:18:16.886Z,13.20
2022-08-04T04:22:02.791Z,14.70
2022-08-04T04:26:03.928Z,15.20
2022-08-04T04:29:51.114Z,14.60
2022-08-04T04:33:47.606Z,14.90
2022-08-04T04:37:33.724Z,15.60
2022-08-04T04:41:41.936Z,15.10
2022-08-04T04:44:33.533Z,15.80
2022-08-04T04:48:35.282Z,15.10
2022-08-04T04:51:58.140Z,14.60
2022-08-04T04:55:55.941Z,15.50
2022-08-04T04:59:37.402Z,15.90
2022-08-04T05:03:34.502Z,13.70
2022-08-04T05:07:47.522Z,14.70
2022-08-04T05:11:46.898Z,14.40
2022-08-04T05:15:35.887Z,13.20
2022-08-04T05:19:26.374Z,13.40
2022-08-04T05:23:24.078Z,14.50
2022-08-04T05:27:12.948Z,13.40
2022-08-04T05:31:10.926Z,13.00
2022-08-04T05:35:02.595Z,12.50
2022-08-04T05:38:51.859Z,12.20
2022-08-04T05:42:40.715Z,14.60
2022-08-04T05:46:30.208Z,12.00
2022-08-04T05:50:19.157Z,11.40
2022-08-04T05:54:08.002Z,11.90
2022-08-04T05:57:57.496Z,10.60
2022-08-04T06:01:55.801Z,11.00
2022-08-04T06:05:46.024Z,10.30
2022-08-04T06:09:34.983Z,9.80
2022-08-04T06:13:49.077Z,9.90
2022-08-04T06:19:58.816Z,10.10
2022-08-04T06:21:43.876Z,10.70
2022-08-04T06:25:32.962Z,10.50
2022-08-04T06:29:21.956Z,9.90
2022-08-04T06:33:17.520Z,10.30
2022-08-04T06:37:06.435Z,9.80
2022-08-04T06:40:55.625Z,9.10
2022-08-04T06:44:44.598Z,10.00
2022-08-04T06:48:33.833Z,9.60
2022-08-04T06:52:23.050Z,10.40
2022-08-04T06:56:01.365Z,9.20
2022-08-04T06:59:41.860Z,8.70
2022-08-04T07:03:31.873Z,8.80
2022-08-04T07:07:21.271Z,8.70
2022-08-04T07:11:18.286Z,8.50
2022-08-04T07:15:09.552Z,8.70
2022-08-04T07:19:10.554Z,8.40
2022-08-04T07:23:01.428Z,8.30
2022-08-04T07:26:53.765Z,7.80
2022-08-04T07:30:43.662Z,7.30
2022-08-04T07:34:33.803Z,6.60
2022-08-04T07:38:27.498Z,7.90
2022-08-04T07:42:17.205Z,8.20
2022-08-04T07:46:09.567Z,7.40
2022-08-04T07:49:59.185Z,7.20
2022-08-04T07:53:53.565Z,7.10
2022-08-04T07:57:46.553Z,10.10
2022-08-04T08:01:36.026Z,7.20
2022-08-04T08:05:25.618Z,7.80
2022-08-04T08:09:15.096Z,7.70
2022-08-04T08:13:04.750Z,7.60
2022-08-04T08:16:54.088Z,7.90
2022-08-04T08:20:41.963Z,7.60
2022-08-04T08:24:34.474Z,7.20
2022-08-04T08:28:24.189Z,7.80
2022-08-04T08:32:14.373Z,7.90
2022-08-04T08:36:03.610Z,7.20
2022-08-04T08:39:55.978Z,7.20
2022-08-04T08:44:09.624Z,7.00
2022-08-04T08:48:27.864Z,7.90
2022-08-04T08:53:00.799Z,6.20
2022-08-04T08:56:51.863Z,6.30
2022-08-04T09:00:58.669Z,5.80
2022-08-04T09:05:01.591Z,6.30
2022-08-04T09:08:49.613Z,6.10
2022-08-04T09:13:03.262Z,5.90
2022-08-04T09:16:58.933Z,6.50
2022-08-04T09:20:51.598Z,6.80
2022-08-04T09:24:59.403Z,6.60
2022-08-04T09:28:54.383Z,6.50
2022-08-04T09:33:02.190Z,5.90
2022-08-04T09:36:51.810Z,7.10
2022-08-04T09:40:53.636Z,6.40
2022-08-04T09:45:05.835Z,5.70
2022-08-04T09:48:56.073Z,6.20
2022-08-04T09:52:52.793Z,6.10
2022-08-04T09:56:51.259Z,7.00
2022-08-04T10:00:47.412Z,7.80
2022-08-04T10:04:37.136Z,6.40
2022-08-04T10:08:38.345Z,6.50
2022-08-04T10:12:42.837Z,6.70
2022-08-04T10:16:33.469Z,6.50
2022-08-04T10:19:47.274Z,6.50
2022-08-04T10:23:13.278Z,6.20
2022-08-04T10:26:35.292Z,6.60
2022-08-04T10:29:24.106Z,6.80
2022-08-04T10:33:17.039Z,6.80
2022-08-04T10:36:17.778Z,6.60
2022-08-04T10:39:42.936Z,6.30
2022-08-04T10:42:45.124Z,7.20
2022-08-04T10:45:24.249Z,7.10
2022-08-04T10:48:34.893Z,7.10
2022-08-04T10:51:29.062Z,6.40
2022-08-04T10:54:11.019Z,9.60
2022-08-04T10:56:46.752Z,7.60
2022-08-04T10:59:48.214Z,7.40
2022-08-04T11:03:14.793Z,7.20
2022-08-04T11:05:55.466Z,7.50
2022-08-04T11:08:49.558Z,7.10
2022-08-04T11:11:56.846Z,8.20
2022-08-04T11:15:07.044Z,7.50
2022-08-04T11:18:06.690Z,7.30
2022-08-04T11:21:18.241Z,8.00
2022-08-04T11:24:05.727Z,7.80
2022-08-04T11:27:04.427Z,7.80
2022-08-04T11:30:07.625Z,7.30
2022-08-04T11:33:29.535Z,7.20
2022-08-04T11:36:19.417Z,9.40
2022-08-04T11:39:04.936Z,7.50
2022-08-04T11:41:58.421Z,7.40
2022-08-04T11:44:38.341Z,7.60
2022-08-04T11:47:38.999Z,7.30
2022-08-04T11:50:10.636Z,8.60
2022-08-04T11:53:02.792Z,8.10
2022-08-04T11:56:08.340Z,8.20
2022-08-04T11:58:26.791Z,7.90
2022-08-04T12:01:21.599Z,8.20
2022-08-04T12:04:30.871Z,7.80
2022-08-04T12:07:31.645Z,7.80
2022-08-04T12:10:42.793Z,8.00
2022-08-04T12:13:18.901Z,7.50
2022-08-04T12:16:03.807Z,8.10
2022-08-04T12:18:40.721Z,7.90
2022-08-04T12:21:28.483Z,7.90
2022-08-04T12:24:07.363Z,7.90
2022-08-04T12:27:26.022Z,7.50
2022-08-04T12:31:00.654Z,8.50
2022-08-04T12:33:03.936Z,7.40
2022-08-04T12:36:10.280Z,7.40
2022-08-04T12:38:33.564Z,7.80
2022-08-04T12:41:07.655Z,8.90
2022-08-04T12:43:42.707Z,8.80
2022-08-04T12:46:19.959Z,8.80
2022-08-04T12:48:50.371Z,7.90
2022-08-04T12:51:30.977Z,8.00
2022-08-04T12:54:29.212Z,8.00
2022-08-04T12:56:59.297Z,8.30
2022-08-04T12:59:27.997Z,7.10
2022-08-04T13:02:09.427Z,8.40
2022-08-04T13:04:51.728Z,7.90
2022-08-04T13:07:39.026Z,7.90
2022-08-04T13:10:18.333Z,8.00
2022-08-04T13:13:15.030Z,7.20
2022-08-04T13:15:47.055Z,8.40
2022-08-04T13:18:30.102Z,8.40
2022-08-04T13:21:49.899Z,7.50
2022-08-04T13:24:32.124Z,8.00
2022-08-04T13:27:19.087Z,7.40
2022-08-04T13:30:00.573Z,7.60
2022-08-04T13:32:34.374Z,7.40
2022-08-04T13:35:17.242Z,7.50
2022-08-04T13:37:46.616Z,7.00
2022-08-04T13:40:38.554Z,7.70
2022-08-04T13:44:15.455Z,6.90
2022-08-04T13:46:05.449Z,7.60
2022-08-04T13:48:40.351Z,7.30
2022-08-04T13:51:12.273Z,6.70
2022-08-04T13:53:42.543Z,7.30
2022-08-04T13:56:16.138Z,7.80
2022-08-04T13:58:47.580Z,6.80
2022-08-04T14:01:22.478Z,7.90
2022-08-04T14:04:13.301Z,6.90
2022-08-04T14:06:50.562Z,6.20
2022-08-04T14:09:21.741Z,6.80
2022-08-04T14:12:09.987Z,7.20
2022-08-04T14:14:53.893Z,6.50
2022-08-04T14:17:30.809Z,6.70
2022-08-04T14:20:10.982Z,5.70
2022-08-04T14:22:39.317Z,6.40
2022-08-04T14:25:17.110Z,7.40
2022-08-04T14:27:51.146Z,7.60
2022-08-04T14:30:24.474Z,7.00
2022-08-04T14:34:02.570Z,6.60
2022-08-04T14:35:59.491Z,7.40
2022-08-04T14:38:42.896Z,7.20
2022-08-04T14:41:11.582Z,6.90
2022-08-04T14:44:07.302Z,7.00
2022-08-04T14:46:50.760Z,6.70
2022-08-04T14:49:19.875Z,7.30
2022-08-04T14:52:00.154Z,6.90
2022-08-04T14:54:31.949Z,7.10
2022-08-04T14:57:05.786Z,7.40
2022-08-04T14:59:59.489Z,7.10
2022-08-04T15:02:32.576Z,7.10
2022-08-04T15:06:00.857Z,7.30
2022-08-04T15:07:55.813Z,7.10
2022-08-04T15:10:24.248Z,7.20
2022-08-04T15:12:53.265Z,6.30
2022-08-04T15:15:36.639Z,7.00
2022-08-04T15:18:13.175Z,8.30
2022-08-04T15:20:44.508Z,7.00
2022-08-04T15:23:24.152Z,6.80
2022-08-04T15:26:10.487Z,7.90
2022-08-04T15:28:41.654Z,7.00
2022-08-04T15:32:04.612Z,7.50
2022-08-04T15:33:59.482Z,7.30
2022-08-04T15:36:56.230Z,6.80
2022-08-04T15:39:38.367Z,7.10
2022-08-04T15:42:22.229Z,7.00
2022-08-04T15:45:10.555Z,7.30
2022-08-04T15:47:40.369Z,7.30
2022-08-04T15:50:13.616Z,7.10
2022-08-04T15:53:00.665Z,7.00
2022-08-04T15:55:36.650Z,6.80
2022-08-04T15:58:05.878Z,6.80
2022-08-04T16:00:49.457Z,6.80
2022-08-04T16:03:55.413Z,7.70
2022-08-04T16:06:30.409Z,7.50
2022-08-04T16:09:01.259Z,6.80
2022-08-04T16:11:31.013Z,6.90
2022-08-04T16:13:59.512Z,6.70
2022-08-04T16:16:36.861Z,6.60
2022-08-04T16:19:07.222Z,7.60
2022-08-04T16:21:47.424Z,7.80
2022-08-04T16:24:39.075Z,6.30
2022-08-04T16:27:09.470Z,7.50
2022-08-04T16:29:40.360Z,6.40
2022-08-04T16:32:16.836Z,6.80
2022-08-04T16:35:12.745Z,7.10
2022-08-04T16:37:44.134Z,7.50
2022-08-04T16:40:35.844Z,7.00
2022-08-04T16:43:09.895Z,9.70
2022-08-04T16:45:43.330Z,7.40
2022-08-04T16:48:12.585Z,7.40
2022-08-04T16:51:03.220Z,5.90
2022-08-04T16:54:02.799Z,6.80
2022-08-04T16:56:33.029Z,9.90
2022-08-04T16:59:09.897Z,8.40
2022-08-04T17:01:49.085Z,6.50
2022-08-04T17:04:17.708Z,7.60
2022-08-04T17:06:49.461Z,8.60
2022-08-04T17:09:26.815Z,6.90
2022-08-04T17:11:57.682Z,6.90
2022-08-04T17:14:28.360Z,7.20
2022-08-04T17:16:59.840Z,6.90
2022-08-04T17:19:28.451Z,6.70
2022-08-04T17:22:10.336Z,7.30
2022-08-04T17:24:40.920Z,7.10
2022-08-04T17:28:09.157Z,7.10
2022-08-04T17:29:58.884Z,6.90
2022-08-04T17:32:27.257Z,6.70
2022-08-04T17:35:01.571Z,7.10
2022-08-04T17:37:38.395Z,6.30
2022-08-04T17:40:17.946Z,6.80
2022-08-04T17:44:01.258Z,6.70
2022-08-04T17:46:15.957Z,6.30
2022-08-04T17:49:18.489Z,6.70
2022-08-04T17:54:40.939Z,7.70
2022-08-04T17:57:21.307Z,9.40
2022-08-04T17:59:59.557Z,7.40
2022-08-04T18:02:34.952Z,6.50
2022-08-04T18:05:06.175Z,7.60
2022-08-04T18:08:39.006Z,7.20
2022-08-04T18:10:51.791Z,6.60
2022-08-04T18:13:24.577Z,7.30
2022-08-04T18:16:02.401Z,7.60
2022-08-04T18:18:31.199Z,7.80
2022-08-04T18:21:02.928Z,6.70
2022-08-04T18:23:51.875Z,7.10
2022-08-04T18:29:08.018Z,7.40
2022-08-04T18:31:56.584Z,9.40
2022-08-04T18:34:26.954Z,10.10
2022-08-04T18:36:59.082Z,18.00
2022-08-04T18:40:17.437Z,27.50
2022-08-04T18:42:18.081Z,9.60
2022-08-04T18:44:52.070Z,9.50
2022-08-04T18:47:23.299Z,8.70
2022-08-04T18:51:00.756Z,8.60
2022-08-04T18:52:42.180Z,9.20
2022-08-04T18:55:55.814Z,8.00
2022-08-04T18:58:06.066Z,8.40
2022-08-04T19:00:36.566Z,7.50
2022-08-04T19:03:05.028Z,7.90
2022-08-04T19:05:38.158Z,8.40
2022-08-04T19:08:32.472Z,8.60
2022-08-04T19:10:59.573Z,8.50
2022-08-04T19:13:30.118Z,9.90
2022-08-04T19:16:03.568Z,8.70
2022-08-04T19:18:33.840Z,8.00
2022-08-04T19:21:05.495Z,7.30
2022-08-04T19:24:28.524Z,7.90
2022-08-04T19:26:28.215Z,7.80
2022-08-04T19:28:57.363Z,9.90
2022-08-04T19:31:34.313Z,10.90
2022-08-04T19:34:09.503Z,10.80
2022-08-04T19:36:37.890Z,11.80
2022-08-04T19:39:11.707Z,10.90
2022-08-04T19:42:06.282Z,10.20
2022-08-04T19:44:31.254Z,14.20
2022-08-04T19:47:02.341Z,10.60
2022-08-04T19:50:03.785Z,9.90
2022-08-04T19:52:33.362Z,10.80
2022-08-04T19:57:52.585Z,16.20
2022-08-04T20:03:13.405Z,10.70
2022-08-04T20:05:54.727Z,10.90
2022-08-04T20:08:29.963Z,11.70
2022-08-04T20:11:00.200Z,10.20
2022-08-04T20:13:37.458Z,10.70
2022-08-04T20:16:20.248Z,11.00
2022-08-04T20:19:00.923Z,10.00
2022-08-04T20:21:54.115Z,10.70
2022-08-04T20:24:37.761Z,10.80
2022-08-04T20:27:15.466Z,10.40
2022-08-04T20:29:48.403Z,11.50
2022-08-04T20:32:21.990Z,10.40
2022-08-04T20:34:54.042Z,10.40
2022-08-04T20:37:25.605Z,10.60
2022-08-04T20:40:14.986Z,10.90
2022-08-04T20:42:44.986Z,11.50
2022-08-04T20:45:16.274Z,10.30
2022-08-04T20:47:53.382Z,11.10
2022-08-04T20:50:29.848Z,10.90
2022-08-04T20:53:00.599Z,12.10
2022-08-04T20:55:30.087Z,10.90
2022-08-04T20:58:02.995Z,10.30
2022-08-04T21:00:33.289Z,11.70
2022-08-04T21:03:02.539Z,9.90
2022-08-04T21:05:31.533Z,10.70
2022-08-04T21:08:00.185Z,11.10
2022-08-04T21:10:30.487Z,9.60
2022-08-04T21:12:59.690Z,9.10
2022-08-04T21:15:58.861Z,9.40
2022-08-04T21:18:16.877Z,8.70
2022-08-04T21:20:45.390Z,8.70
2022-08-04T21:23:16.516Z,8.40
2022-08-04T21:25:50.061Z,8.00
2022-08-04T21:28:20.524Z,8.20
2022-08-04T21:30:54.726Z,9.30
2022-08-04T21:33:50.009Z,8.20
2022-08-04T21:36:16.123Z,8.50
2022-08-04T21:38:51.787Z,8.30
2022-08-04T21:41:24.967Z,8.90
2022-08-04T21:43:59.699Z,8.70
2022-08-04T21:46:30.295Z,8.90
2022-08-04T21:49:00.806Z,8.20
2022-08-04T21:51:58.373Z,8.00
2022-08-04T21:54:25.103Z,8.60
2022-08-04T21:56:53.960Z,8.90
2022-08-04T21:59:30.628Z,8.70
2022-08-04T22:02:01.635Z,8.90
2022-08-04T22:04:31.602Z,8.70
2022-08-04T22:07:02.779Z,8.50
2022-08-04T22:09:38.695Z,8.90
2022-08-04T22:12:11.964Z,8.60
2022-08-04T22:14:41.945Z,8.40
2022-08-04T22:17:18.458Z,7.90
2022-08-04T22:22:37.740Z,7.90
2022-08-04T22:28:02.850Z,8.60
2022-08-04T22:30:37.090Z,8.10
2022-08-04T22:33:08.576Z,8.20
2022-08-04T22:35:44.268Z,8.80
2022-08-04T22:38:21.304Z,8.80
2022-08-04T22:41:02.128Z,8.10
2022-08-04T22:43:31.834Z,7.70
2022-08-04T22:46:11.915Z,8.40
2022-08-04T22:48:43.352Z,8.20
2022-08-04T22:51:12.871Z,8.40
2022-08-04T22:53:41.996Z,7.80
2022-08-04T22:56:37.333Z,8.30
2022-08-04T22:59:11.400Z,8.60
2022-08-04T23:01:59.126Z,8.20
2022-08-04T23:04:33.011Z,8.40
2022-08-04T23:07:08.994Z,8.90
2022-08-04T23:09:50.505Z,7.70
2022-08-04T23:12:25.843Z,8.20
2022-08-04T23:14:57.198Z,7.60
2022-08-04T23:17:28.209Z,7.90
2022-08-04T23:19:59.251Z,8.50
2022-08-04T23:22:36.929Z,8.40
2022-08-04T23:25:06.037Z,7.70
2022-08-04T23:27:50.769Z,8.30
2022-08-04T23:30:24.685Z,8.20
2022-08-04T23:32:57.772Z,9.00
2022-08-04T23:35:28.298Z,8.10
2022-08-04T23:37:59.870Z,7.60
2022-08-04T23:40:50.360Z,7.80
2022-08-04T23:43:19.268Z,8.00
2022-08-04T23:46:07.453Z,8.50
2022-08-04T23:48:38.835Z,8.60
2022-08-04T23:51:14.820Z,7.70
2022-08-04T23:54:01.881Z,7.70
2022-08-04T23:56:34.195Z,7.80
2022-08-04T23:59:03.772Z,8.00
